sensor_id;sensor_type;location;lat;lon;timestamp;temperature;humidity
40702;DHT22;26387;50.114;8.662;2022-07-23T00:00:30;24.30;66.30
40702;DHT22;26387;50.114;8.662;2022-07-23T00:02:55;24.20;66.60
40702;DHT22;26387;50.114;8.662;2022-07-23T00:05:21;24.10;66.80
40702;DHT22;26387;50.114;8.662;2022-07-23T00:07:46;24.10;67.10
40702;DHT22;26387;50.114;8.662;2022-07-23T00:10:12;24.10;67.30
40702;DHT22;26387;50.114;8.662;2022-07-23T00:12:38;24.00;67.50
40702;DHT22;26387;50.114;8.662;2022-07-23T00:15:05;24.00;67.70
40702;DHT22;26387;50.114;8.662;2022-07-23T00:17:31;24.00;68.00
40702;DHT22;26387;50.114;8.662;2022-07-23T00:19:56;23.90;68.40
40702;DHT22;26387;50.114;8.662;2022-07-23T00:22:22;23.80;68.70
40702;DHT22;26387;50.114;8.662;2022-07-23T00:24:47;23.80;68.90
40702;DHT22;26387;50.114;8.662;2022-07-23T00:27:13;23.70;69.30
40702;DHT22;26387;50.114;8.662;2022-07-23T00:29:38;23.70;69.60
40702;DHT22;26387;50.114;8.662;2022-07-23T00:32:04;23.60;69.60
40702;DHT22;26387;50.114;8.662;2022-07-23T00:34:30;23.60;69.90
40702;DHT22;26387;50.114;8.662;2022-07-23T00:36:56;23.60;70.10
40702;DHT22;26387;50.114;8.662;2022-07-23T00:39:21;23.70;70.20
40702;DHT22;26387;50.114;8.662;2022-07-23T00:41:48;23.70;70.40
40702;DHT22;26387;50.114;8.662;2022-07-23T00:46:46;23.70;70.50
40702;DHT22;26387;50.114;8.662;2022-07-23T00:49:12;23.60;70.60
40702;DHT22;26387;50.114;8.662;2022-07-23T00:51:37;23.60;70.70
40702;DHT22;26387;50.114;8.662;2022-07-23T00:54:03;23.50;70.90
40702;DHT22;26387;50.114;8.662;2022-07-23T00:56:30;23.40;71.30
40702;DHT22;26387;50.114;8.662;2022-07-23T00:58:56;23.40;71.70
40702;DHT22;26387;50.114;8.662;2022-07-23T01:01:22;23.40;72.00
40702;DHT22;26387;50.114;8.662;2022-07-23T01:03:48;23.30;72.30
40702;DHT22;26387;50.114;8.662;2022-07-23T01:06:14;23.30;72.50
40702;DHT22;26387;50.114;8.662;2022-07-23T01:08:40;23.20;72.90
40702;DHT22;26387;50.114;8.662;2022-07-23T01:11:06;23.20;73.00
40702;DHT22;26387;50.114;8.662;2022-07-23T01:13:32;23.20;73.40
40702;DHT22;26387;50.114;8.662;2022-07-23T01:15:58;23.20;73.60
40702;DHT22;26387;50.114;8.662;2022-07-23T01:18:23;23.20;73.70
40702;DHT22;26387;50.114;8.662;2022-07-23T01:20:49;23.20;73.80
40702;DHT22;26387;50.114;8.662;2022-07-23T01:23:15;23.20;73.90
40702;DHT22;26387;50.114;8.662;2022-07-23T01:25:52;23.20;73.90
40702;DHT22;26387;50.114;8.662;2022-07-23T01:28:18;23.20;74.30
40702;DHT22;26387;50.114;8.662;2022-07-23T01:30:44;23.20;74.10
40702;DHT22;26387;50.114;8.662;2022-07-23T01:33:10;23.20;74.20
40702;DHT22;26387;50.114;8.662;2022-07-23T01:35:35;23.10;74.60
40702;DHT22;26387;50.114;8.662;2022-07-23T01:38:01;23.20;74.70
40702;DHT22;26387;50.114;8.662;2022-07-23T01:40:26;23.20;74.80
40702;DHT22;26387;50.114;8.662;2022-07-23T01:42:52;23.30;75.10
40702;DHT22;26387;50.114;8.662;2022-07-23T01:45:18;23.30;75.50
40702;DHT22;26387;50.114;8.662;2022-07-23T01:47:43;23.30;75.90
40702;DHT22;26387;50.114;8.662;2022-07-23T01:50:09;23.30;75.90
40702;DHT22;26387;50.114;8.662;2022-07-23T01:52:35;23.30;75.70
40702;DHT22;26387;50.114;8.662;2022-07-23T01:55:00;23.30;76.50
40702;DHT22;26387;50.114;8.662;2022-07-23T01:57:26;23.30;76.60
40702;DHT22;26387;50.114;8.662;2022-07-23T01:59:51;23.30;77.20
40702;DHT22;26387;50.114;8.662;2022-07-23T02:02:17;23.20;78.40
40702;DHT22;26387;50.114;8.662;2022-07-23T02:04:43;23.20;78.30
40702;DHT22;26387;50.114;8.662;2022-07-23T02:07:08;23.20;78.60
40702;DHT22;26387;50.114;8.662;2022-07-23T02:09:34;23.20;77.80
40702;DHT22;26387;50.114;8.662;2022-07-23T02:12:00;23.20;78.10
40702;DHT22;26387;50.114;8.662;2022-07-23T02:14:26;23.20;77.60
40702;DHT22;26387;50.114;8.662;2022-07-23T02:16:52;23.20;77.40
40702;DHT22;26387;50.114;8.662;2022-07-23T02:19:18;23.30;77.20
40702;DHT22;26387;50.114;8.662;2022-07-23T02:21:43;23.20;77.00
40702;DHT22;26387;50.114;8.662;2022-07-23T02:24:09;23.20;76.80
40702;DHT22;26387;50.114;8.662;2022-07-23T02:26:35;23.20;77.20
40702;DHT22;26387;50.114;8.662;2022-07-23T02:29:02;23.20;77.10
40702;DHT22;26387;50.114;8.662;2022-07-23T02:31:29;23.20;77.40
40702;DHT22;26387;50.114;8.662;2022-07-23T02:33:55;23.20;77.40
40702;DHT22;26387;50.114;8.662;2022-07-23T02:36:21;23.20;77.40
40702;DHT22;26387;50.114;8.662;2022-07-23T02:38:46;23.10;77.90
40702;DHT22;26387;50.114;8.662;2022-07-23T02:41:12;23.10;78.00
40702;DHT22;26387;50.114;8.662;2022-07-23T02:43:38;23.10;78.00
40702;DHT22;26387;50.114;8.662;2022-07-23T02:46:04;23.10;77.90
40702;DHT22;26387;50.114;8.662;2022-07-23T02:48:30;23.20;77.80
40702;DHT22;26387;50.114;8.662;2022-07-23T02:50:56;23.20;77.70
40702;DHT22;26387;50.114;8.662;2022-07-23T02:53:24;23.10;77.60
40702;DHT22;26387;50.114;8.662;2022-07-23T02:55:50;23.10;77.60
40702;DHT22;26387;50.114;8.662;2022-07-23T02:58:16;23.10;77.80
40702;DHT22;26387;50.114;8.662;2022-07-23T03:00:41;23.10;78.00
40702;DHT22;26387;50.114;8.662;2022-07-23T03:03:07;23.00;78.20
40702;DHT22;26387;50.114;8.662;2022-07-23T03:05:33;23.00;78.30
40702;DHT22;26387;50.114;8.662;2022-07-23T03:07:59;23.10;78.30
40702;DHT22;26387;50.114;8.662;2022-07-23T03:10:25;23.00;78.60
40702;DHT22;26387;50.114;8.662;2022-07-23T03:12:50;23.00;78.10
40702;DHT22;26387;50.114;8.662;2022-07-23T03:15:16;23.00;78.20
40702;DHT22;26387;50.114;8.662;2022-07-23T03:17:42;23.00;78.20
40702;DHT22;26387;50.114;8.662;2022-07-23T03:20:08;23.00;78.20
40702;DHT22;26387;50.114;8.662;2022-07-23T03:22:34;23.00;78.20
40702;DHT22;26387;50.114;8.662;2022-07-23T03:24:59;23.00;78.20
40702;DHT22;26387;50.114;8.662;2022-07-23T03:27:26;22.90;78.30
40702;DHT22;26387;50.114;8.662;2022-07-23T03:29:54;22.90;78.40
40702;DHT22;26387;50.114;8.662;2022-07-23T03:32:21;22.80;78.80
40702;DHT22;26387;50.114;8.662;2022-07-23T03:34:46;22.80;79.10
40702;DHT22;26387;50.114;8.662;2022-07-23T03:37:12;22.70;79.40
40702;DHT22;26387;50.114;8.662;2022-07-23T03:39:38;22.70;79.60
40702;DHT22;26387;50.114;8.662;2022-07-23T03:42:03;22.70;79.80
40702;DHT22;26387;50.114;8.662;2022-07-23T03:44:29;22.70;80.00
40702;DHT22;26387;50.114;8.662;2022-07-23T03:46:55;22.60;80.10
40702;DHT22;26387;50.114;8.662;2022-07-23T03:49:20;22.70;80.40
40702;DHT22;26387;50.114;8.662;2022-07-23T03:51:46;22.60;80.40
40702;DHT22;26387;50.114;8.662;2022-07-23T03:54:12;22.70;80.50
40702;DHT22;26387;50.114;8.662;2022-07-23T03:56:37;22.60;80.60
40702;DHT22;26387;50.114;8.662;2022-07-23T03:59:03;22.70;80.70
40702;DHT22;26387;50.114;8.662;2022-07-23T04:01:29;22.60;80.70
40702;DHT22;26387;50.114;8.662;2022-07-23T04:03:54;22.70;80.70
40702;DHT22;26387;50.114;8.662;2022-07-23T04:06:20;22.70;80.70
40702;DHT22;26387;50.114;8.662;2022-07-23T04:08:46;22.60;80.50
40702;DHT22;26387;50.114;8.662;2022-07-23T04:11:11;22.60;80.80
40702;DHT22;26387;50.114;8.662;2022-07-23T04:13:37;22.60;81.00
40702;DHT22;26387;50.114;8.662;2022-07-23T04:16:03;22.60;81.00
40702;DHT22;26387;50.114;8.662;2022-07-23T04:18:29;22.60;81.20
40702;DHT22;26387;50.114;8.662;2022-07-23T04:20:55;22.60;81.40
40702;DHT22;26387;50.114;8.662;2022-07-23T04:23:20;22.60;82.40
40702;DHT22;26387;50.114;8.662;2022-07-23T04:25:46;22.50;81.80
40702;DHT22;26387;50.114;8.662;2022-07-23T04:28:12;22.50;82.00
40702;DHT22;26387;50.114;8.662;2022-07-23T04:30:37;22.50;82.00
40702;DHT22;26387;50.114;8.662;2022-07-23T04:33:03;22.50;82.30
40702;DHT22;26387;50.114;8.662;2022-07-23T04:35:32;22.50;82.30
40702;DHT22;26387;50.114;8.662;2022-07-23T04:37:58;22.50;82.40
40702;DHT22;26387;50.114;8.662;2022-07-23T04:40:23;22.40;82.30
40702;DHT22;26387;50.114;8.662;2022-07-23T04:42:49;22.40;82.20
40702;DHT22;26387;50.114;8.662;2022-07-23T04:45:14;22.40;82.10
40702;DHT22;26387;50.114;8.662;2022-07-23T04:47:40;22.40;81.90
40702;DHT22;26387;50.114;8.662;2022-07-23T04:50:06;22.50;81.90
40702;DHT22;26387;50.114;8.662;2022-07-23T04:52:31;22.50;81.70
40702;DHT22;26387;50.114;8.662;2022-07-23T04:54:57;22.50;81.40
40702;DHT22;26387;50.114;8.662;2022-07-23T04:57:22;22.60;81.20
40702;DHT22;26387;50.114;8.662;2022-07-23T04:59:48;22.60;80.90
40702;DHT22;26387;50.114;8.662;2022-07-23T05:02:14;22.60;80.60
40702;DHT22;26387;50.114;8.662;2022-07-23T05:04:39;22.70;80.30
40702;DHT22;26387;50.114;8.662;2022-07-23T05:07:05;22.70;79.60
40702;DHT22;26387;50.114;8.662;2022-07-23T05:09:30;22.70;79.20
40702;DHT22;26387;50.114;8.662;2022-07-23T05:11:56;22.70;78.70
40702;DHT22;26387;50.114;8.662;2022-07-23T05:14:21;22.70;78.50
40702;DHT22;26387;50.114;8.662;2022-07-23T05:16:47;22.70;78.50
40702;DHT22;26387;50.114;8.662;2022-07-23T05:19:12;22.80;78.30
40702;DHT22;26387;50.114;8.662;2022-07-23T05:21:39;22.80;78.20
40702;DHT22;26387;50.114;8.662;2022-07-23T05:24:05;22.80;77.90
40702;DHT22;26387;50.114;8.662;2022-07-23T05:26:30;22.80;77.70
40702;DHT22;26387;50.114;8.662;2022-07-23T05:28:56;22.70;77.80
40702;DHT22;26387;50.114;8.662;2022-07-23T05:31:22;22.80;77.60
40702;DHT22;26387;50.114;8.662;2022-07-23T05:33:47;22.80;77.50
40702;DHT22;26387;50.114;8.662;2022-07-23T05:36:13;22.80;77.40
40702;DHT22;26387;50.114;8.662;2022-07-23T05:38:39;22.80;77.10
40702;DHT22;26387;50.114;8.662;2022-07-23T05:41:04;22.80;76.90
40702;DHT22;26387;50.114;8.662;2022-07-23T05:43:30;22.90;76.90
40702;DHT22;26387;50.114;8.662;2022-07-23T05:45:56;22.80;76.50
40702;DHT22;26387;50.114;8.662;2022-07-23T05:48:21;22.80;76.40
40702;DHT22;26387;50.114;8.662;2022-07-23T05:50:47;22.90;76.40
40702;DHT22;26387;50.114;8.662;2022-07-23T05:53:13;22.90;76.40
40702;DHT22;26387;50.114;8.662;2022-07-23T05:55:38;23.00;76.20
40702;DHT22;26387;50.114;8.662;2022-07-23T05:58:04;23.00;75.90
40702;DHT22;26387;50.114;8.662;2022-07-23T06:00:30;23.00;75.50
40702;DHT22;26387;50.114;8.662;2022-07-23T06:02:56;23.10;75.10
40702;DHT22;26387;50.114;8.662;2022-07-23T06:05:23;23.10;75.00
40702;DHT22;26387;50.114;8.662;2022-07-23T06:07:49;23.10;74.90
40702;DHT22;26387;50.114;8.662;2022-07-23T06:10:15;23.00;74.70
40702;DHT22;26387;50.114;8.662;2022-07-23T06:12:41;23.00;74.80
40702;DHT22;26387;50.114;8.662;2022-07-23T06:15:07;22.80;73.00
40702;DHT22;26387;50.114;8.662;2022-07-23T06:17:33;22.80;73.10
40702;DHT22;26387;50.114;8.662;2022-07-23T06:19:58;22.80;73.20
40702;DHT22;26387;50.114;8.662;2022-07-23T06:22:24;22.90;73.40
40702;DHT22;26387;50.114;8.662;2022-07-23T06:24:50;23.00;73.30
40702;DHT22;26387;50.114;8.662;2022-07-23T06:27:19;23.00;73.20
40702;DHT22;26387;50.114;8.662;2022-07-23T06:29:45;23.10;73.60
40702;DHT22;26387;50.114;8.662;2022-07-23T06:32:10;23.20;73.00
40702;DHT22;26387;50.114;8.662;2022-07-23T06:34:36;23.20;72.70
40702;DHT22;26387;50.114;8.662;2022-07-23T06:37:01;23.30;72.10
40702;DHT22;26387;50.114;8.662;2022-07-23T06:39:27;23.40;72.00
40702;DHT22;26387;50.114;8.662;2022-07-23T06:41:53;23.50;71.50
40702;DHT22;26387;50.114;8.662;2022-07-23T06:44:19;23.60;71.10
40702;DHT22;26387;50.114;8.662;2022-07-23T06:46:44;23.60;70.90
40702;DHT22;26387;50.114;8.662;2022-07-23T06:49:10;23.70;71.50
40702;DHT22;26387;50.114;8.662;2022-07-23T06:51:35;23.80;70.00
40702;DHT22;26387;50.114;8.662;2022-07-23T06:54:02;23.80;69.30
40702;DHT22;26387;50.114;8.662;2022-07-23T06:56:27;23.80;68.60
40702;DHT22;26387;50.114;8.662;2022-07-23T06:58:53;23.90;68.30
40702;DHT22;26387;50.114;8.662;2022-07-23T07:01:19;24.00;68.10
40702;DHT22;26387;50.114;8.662;2022-07-23T07:03:44;24.00;67.80
40702;DHT22;26387;50.114;8.662;2022-07-23T07:06:10;24.10;67.30
40702;DHT22;26387;50.114;8.662;2022-07-23T07:08:36;24.20;66.90
40702;DHT22;26387;50.114;8.662;2022-07-23T07:11:02;24.30;65.50
40702;DHT22;26387;50.114;8.662;2022-07-23T07:13:28;24.30;65.70
40702;DHT22;26387;50.114;8.662;2022-07-23T07:15:53;24.40;65.60
40702;DHT22;26387;50.114;8.662;2022-07-23T07:18:19;24.50;65.50
40702;DHT22;26387;50.114;8.662;2022-07-23T07:20:44;24.60;65.10
40702;DHT22;26387;50.114;8.662;2022-07-23T07:23:10;24.60;64.40
40702;DHT22;26387;50.114;8.662;2022-07-23T07:25:35;24.70;64.90
40702;DHT22;26387;50.114;8.662;2022-07-23T07:28:02;24.70;64.00
40702;DHT22;26387;50.114;8.662;2022-07-23T07:30:28;24.70;64.40
40702;DHT22;26387;50.114;8.662;2022-07-23T07:32:53;24.80;64.00
40702;DHT22;26387;50.114;8.662;2022-07-23T07:35:19;24.90;64.10
40702;DHT22;26387;50.114;8.662;2022-07-23T07:37:44;24.90;64.00
40702;DHT22;26387;50.114;8.662;2022-07-23T07:40:10;24.90;63.60
40702;DHT22;26387;50.114;8.662;2022-07-23T07:42:47;25.00;63.50
40702;DHT22;26387;50.114;8.662;2022-07-23T07:45:13;25.00;63.40
40702;DHT22;26387;50.114;8.662;2022-07-23T07:47:39;25.10;63.30
40702;DHT22;26387;50.114;8.662;2022-07-23T07:50:05;25.10;63.30
40702;DHT22;26387;50.114;8.662;2022-07-23T07:52:30;25.30;62.90
40702;DHT22;26387;50.114;8.662;2022-07-23T07:54:56;25.30;62.60
40702;DHT22;26387;50.114;8.662;2022-07-23T07:57:21;25.30;62.70
40702;DHT22;26387;50.114;8.662;2022-07-23T07:59:47;25.30;62.80
40702;DHT22;26387;50.114;8.662;2022-07-23T08:02:12;25.40;62.60
40702;DHT22;26387;50.114;8.662;2022-07-23T08:04:38;25.50;62.90
40702;DHT22;26387;50.114;8.662;2022-07-23T08:07:04;25.50;62.20
40702;DHT22;26387;50.114;8.662;2022-07-23T08:09:29;25.50;62.20
40702;DHT22;26387;50.114;8.662;2022-07-23T08:11:55;25.60;62.50
40702;DHT22;26387;50.114;8.662;2022-07-23T08:14:20;25.70;62.00
40702;DHT22;26387;50.114;8.662;2022-07-23T08:16:46;25.70;61.90
40702;DHT22;26387;50.114;8.662;2022-07-23T08:19:12;25.90;61.60
40702;DHT22;26387;50.114;8.662;2022-07-23T08:21:37;26.00;61.50
40702;DHT22;26387;50.114;8.662;2022-07-23T08:24:03;26.10;61.30
40702;DHT22;26387;50.114;8.662;2022-07-23T08:26:28;26.20;60.50
40702;DHT22;26387;50.114;8.662;2022-07-23T08:28:54;26.30;60.20
40702;DHT22;26387;50.114;8.662;2022-07-23T08:31:19;26.30;60.10
40702;DHT22;26387;50.114;8.662;2022-07-23T08:33:45;26.30;60.20
40702;DHT22;26387;50.114;8.662;2022-07-23T08:36:10;26.40;59.90
40702;DHT22;26387;50.114;8.662;2022-07-23T08:38:36;26.40;59.70
40702;DHT22;26387;50.114;8.662;2022-07-23T08:41:02;26.40;59.50
40702;DHT22;26387;50.114;8.662;2022-07-23T08:43:32;26.30;59.90
40702;DHT22;26387;50.114;8.662;2022-07-23T08:46:00;26.40;60.10
40702;DHT22;26387;50.114;8.662;2022-07-23T08:48:31;26.40;60.00
40702;DHT22;26387;50.114;8.662;2022-07-23T08:50:59;26.50;59.60
40702;DHT22;26387;50.114;8.662;2022-07-23T08:53:27;26.50;59.80
40702;DHT22;26387;50.114;8.662;2022-07-23T08:55:57;26.50;59.70
40702;DHT22;26387;50.114;8.662;2022-07-23T08:58:23;26.60;59.50
40702;DHT22;26387;50.114;8.662;2022-07-23T09:00:50;26.60;59.20
40702;DHT22;26387;50.114;8.662;2022-07-23T09:03:17;26.70;59.10
40702;DHT22;26387;50.114;8.662;2022-07-23T09:05:43;26.70;59.00
40702;DHT22;26387;50.114;8.662;2022-07-23T09:08:17;26.70;58.50
40702;DHT22;26387;50.114;8.662;2022-07-23T09:13:34;26.80;58.40
40702;DHT22;26387;50.114;8.662;2022-07-23T09:16:10;26.80;58.10
40702;DHT22;26387;50.114;8.662;2022-07-23T09:18:47;26.70;58.30
40702;DHT22;26387;50.114;8.662;2022-07-23T09:21:30;26.80;58.60
40702;DHT22;26387;50.114;8.662;2022-07-23T09:24:11;26.90;58.40
40702;DHT22;26387;50.114;8.662;2022-07-23T09:26:42;27.20;57.70
40702;DHT22;26387;50.114;8.662;2022-07-23T09:34:26;27.90;55.70
40702;DHT22;26387;50.114;8.662;2022-07-23T09:36:58;28.00;55.50
40702;DHT22;26387;50.114;8.662;2022-07-23T09:39:30;28.10;55.50
40702;DHT22;26387;50.114;8.662;2022-07-23T09:41:56;27.90;55.00
40702;DHT22;26387;50.114;8.662;2022-07-23T09:44:22;27.90;55.40
40702;DHT22;26387;50.114;8.662;2022-07-23T09:46:49;27.90;55.20
40702;DHT22;26387;50.114;8.662;2022-07-23T09:49:20;27.90;54.90
40702;DHT22;26387;50.114;8.662;2022-07-23T09:51:47;27.80;54.30
40702;DHT22;26387;50.114;8.662;2022-07-23T09:54:28;27.70;54.70
40702;DHT22;26387;50.114;8.662;2022-07-23T09:56:57;27.60;54.50
40702;DHT22;26387;50.114;8.662;2022-07-23T09:59:29;27.50;55.00
40702;DHT22;26387;50.114;8.662;2022-07-23T10:01:56;27.60;55.60
40702;DHT22;26387;50.114;8.662;2022-07-23T10:04:23;27.60;55.10
40702;DHT22;26387;50.114;8.662;2022-07-23T10:06:55;27.50;54.60
40702;DHT22;26387;50.114;8.662;2022-07-23T10:09:25;27.50;54.20
40702;DHT22;26387;50.114;8.662;2022-07-23T10:11:52;27.50;54.70
40702;DHT22;26387;50.114;8.662;2022-07-23T10:14:20;27.50;54.60
40702;DHT22;26387;50.114;8.662;2022-07-23T10:16:47;27.60;54.70
40702;DHT22;26387;50.114;8.662;2022-07-23T10:19:13;27.60;54.00
40702;DHT22;26387;50.114;8.662;2022-07-23T10:21:48;27.50;54.20
40702;DHT22;26387;50.114;8.662;2022-07-23T10:27:44;27.50;54.10
40702;DHT22;26387;50.114;8.662;2022-07-23T10:35:40;27.60;54.10
40702;DHT22;26387;50.114;8.662;2022-07-23T10:38:27;27.40;54.20
40702;DHT22;26387;50.114;8.662;2022-07-23T10:41:04;27.50;55.20
40702;DHT22;26387;50.114;8.662;2022-07-23T10:43:30;27.60;54.30
40702;DHT22;26387;50.114;8.662;2022-07-23T10:49:32;27.80;53.40
40702;DHT22;26387;50.114;8.662;2022-07-23T10:52:26;27.80;53.00
40702;DHT22;26387;50.114;8.662;2022-07-23T10:54:55;27.90;53.10
40702;DHT22;26387;50.114;8.662;2022-07-23T10:57:23;27.90;53.30
40702;DHT22;26387;50.114;8.662;2022-07-23T11:02:51;28.00;52.90
40702;DHT22;26387;50.114;8.662;2022-07-23T11:05:22;28.10;53.00
40702;DHT22;26387;50.114;8.662;2022-07-23T11:10:37;28.30;52.60
40702;DHT22;26387;50.114;8.662;2022-07-23T11:16:08;28.50;52.20
40702;DHT22;26387;50.114;8.662;2022-07-23T11:32:01;28.70;50.90
40702;DHT22;26387;50.114;8.662;2022-07-23T11:36:57;28.90;50.50
40702;DHT22;26387;50.114;8.662;2022-07-23T11:39:25;29.00;50.50
40702;DHT22;26387;50.114;8.662;2022-07-23T11:41:51;29.20;50.50
40702;DHT22;26387;50.114;8.662;2022-07-23T11:44:31;29.20;50.10
40702;DHT22;26387;50.114;8.662;2022-07-23T11:47:09;29.30;49.70
40702;DHT22;26387;50.114;8.662;2022-07-23T11:49:35;29.40;49.50
40702;DHT22;26387;50.114;8.662;2022-07-23T11:54:30;29.60;49.50
40702;DHT22;26387;50.114;8.662;2022-07-23T11:57:00;29.70;49.30
40702;DHT22;26387;50.114;8.662;2022-07-23T11:59:33;29.90;48.50
40702;DHT22;26387;50.114;8.662;2022-07-23T12:02:03;30.00;48.10
40702;DHT22;26387;50.114;8.662;2022-07-23T12:04:46;30.10;47.90
40702;DHT22;26387;50.114;8.662;2022-07-23T12:09:52;30.20;47.80
40702;DHT22;26387;50.114;8.662;2022-07-23T12:12:18;30.40;47.50
40702;DHT22;26387;50.114;8.662;2022-07-23T12:15:03;30.40;47.20
40702;DHT22;26387;50.114;8.662;2022-07-23T12:17:30;30.50;46.80
40702;DHT22;26387;50.114;8.662;2022-07-23T12:20:00;30.40;46.60
40702;DHT22;26387;50.114;8.662;2022-07-23T12:22:38;30.40;46.50
40702;DHT22;26387;50.114;8.662;2022-07-23T12:25:08;30.30;46.70
40702;DHT22;26387;50.114;8.662;2022-07-23T12:27:34;30.20;46.90
40702;DHT22;26387;50.114;8.662;2022-07-23T12:30:25;30.20;46.80
40702;DHT22;26387;50.114;8.662;2022-07-23T12:32:53;30.30;47.20
40702;DHT22;26387;50.114;8.662;2022-07-23T12:35:20;30.50;46.60
40702;DHT22;26387;50.114;8.662;2022-07-23T12:37:48;30.80;47.40
40702;DHT22;26387;50.114;8.662;2022-07-23T12:40:32;31.20;45.90
40702;DHT22;26387;50.114;8.662;2022-07-23T12:43:00;31.70;45.40
40702;DHT22;26387;50.114;8.662;2022-07-23T12:45:28;32.00;44.60
40702;DHT22;26387;50.114;8.662;2022-07-23T12:48:03;32.20;44.00
40702;DHT22;26387;50.114;8.662;2022-07-23T12:55:32;32.60;43.10
40702;DHT22;26387;50.114;8.662;2022-07-23T12:58:09;32.60;42.60
40702;DHT22;26387;50.114;8.662;2022-07-23T13:00:58;32.50;42.60
40702;DHT22;26387;50.114;8.662;2022-07-23T13:03:26;32.30;42.90
40702;DHT22;26387;50.114;8.662;2022-07-23T13:05:53;32.20;43.20
40702;DHT22;26387;50.114;8.662;2022-07-23T13:08:19;32.10;43.40
40702;DHT22;26387;50.114;8.662;2022-07-23T13:10:45;32.40;43.50
40702;DHT22;26387;50.114;8.662;2022-07-23T13:13:14;32.70;43.30
40702;DHT22;26387;50.114;8.662;2022-07-23T13:15:40;32.90;43.00
40702;DHT22;26387;50.114;8.662;2022-07-23T13:18:06;33.30;42.10
40702;DHT22;26387;50.114;8.662;2022-07-23T13:20:32;33.70;42.10
40702;DHT22;26387;50.114;8.662;2022-07-23T13:22:59;34.00;40.90
40702;DHT22;26387;50.114;8.662;2022-07-23T13:25:25;34.10;40.40
40702;DHT22;26387;50.114;8.662;2022-07-23T13:27:51;34.00;40.40
40702;DHT22;26387;50.114;8.662;2022-07-23T13:30:17;34.20;40.40
40702;DHT22;26387;50.114;8.662;2022-07-23T13:32:42;34.50;39.90
40702;DHT22;26387;50.114;8.662;2022-07-23T13:35:08;34.70;39.60
40702;DHT22;26387;50.114;8.662;2022-07-23T13:37:34;35.10;39.60
40702;DHT22;26387;50.114;8.662;2022-07-23T13:40:00;35.20;38.60
40702;DHT22;26387;50.114;8.662;2022-07-23T13:42:26;35.20;39.20
40702;DHT22;26387;50.114;8.662;2022-07-23T13:44:51;35.10;38.20
40702;DHT22;26387;50.114;8.662;2022-07-23T13:47:17;35.00;38.40
40702;DHT22;26387;50.114;8.662;2022-07-23T13:49:43;35.30;38.30
40702;DHT22;26387;50.114;8.662;2022-07-23T13:52:08;35.60;37.10
40702;DHT22;26387;50.114;8.662;2022-07-23T13:54:34;35.60;37.00
40702;DHT22;26387;50.114;8.662;2022-07-23T13:57:00;35.40;36.00
40702;DHT22;26387;50.114;8.662;2022-07-23T13:59:25;35.40;37.10
40702;DHT22;26387;50.114;8.662;2022-07-23T14:01:51;35.40;36.20
40702;DHT22;26387;50.114;8.662;2022-07-23T14:04:17;35.30;36.70
40702;DHT22;26387;50.114;8.662;2022-07-23T14:06:42;35.90;36.30
40702;DHT22;26387;50.114;8.662;2022-07-23T14:09:08;36.70;35.50
40702;DHT22;26387;50.114;8.662;2022-07-23T14:11:33;37.60;35.40
40702;DHT22;26387;50.114;8.662;2022-07-23T14:13:59;38.70;34.40
40702;DHT22;26387;50.114;8.662;2022-07-23T14:16:26;40.70;32.20
40702;DHT22;26387;50.114;8.662;2022-07-23T14:18:51;40.90;33.10
40702;DHT22;26387;50.114;8.662;2022-07-23T14:21:17;42.20;32.10
40702;DHT22;26387;50.114;8.662;2022-07-23T14:23:43;43.80;30.50
40702;DHT22;26387;50.114;8.662;2022-07-23T14:26:08;45.40;28.90
40702;DHT22;26387;50.114;8.662;2022-07-23T14:28:34;45.50;29.50
40702;DHT22;26387;50.114;8.662;2022-07-23T14:30:59;45.40;29.10
40702;DHT22;26387;50.114;8.662;2022-07-23T14:33:25;45.60;29.20
40702;DHT22;26387;50.114;8.662;2022-07-23T14:35:51;46.50;28.90
40702;DHT22;26387;50.114;8.662;2022-07-23T14:38:16;47.70;28.40
40702;DHT22;26387;50.114;8.662;2022-07-23T14:40:42;47.80;27.10
40702;DHT22;26387;50.114;8.662;2022-07-23T14:43:08;47.50;27.70
40702;DHT22;26387;50.114;8.662;2022-07-23T14:55:20;51.30;26.00
40702;DHT22;26387;50.114;8.662;2022-07-23T14:57:46;50.90;25.90
40702;DHT22;26387;50.114;8.662;2022-07-23T15:05:04;51.30;25.90
40702;DHT22;26387;50.114;8.662;2022-07-23T15:07:29;53.70;25.40
40702;DHT22;26387;50.114;8.662;2022-07-23T15:09:56;54.30;25.00
40702;DHT22;26387;50.114;8.662;2022-07-23T15:12:22;54.70;25.00
40702;DHT22;26387;50.114;8.662;2022-07-23T15:14:47;54.60;24.40
40702;DHT22;26387;50.114;8.662;2022-07-23T15:17:13;54.90;24.50
40702;DHT22;26387;50.114;8.662;2022-07-23T15:22:05;56.20;23.60
40702;DHT22;26387;50.114;8.662;2022-07-23T15:24:31;56.10;24.10
40702;DHT22;26387;50.114;8.662;2022-07-23T15:26:57;55.60;23.90
40702;DHT22;26387;50.114;8.662;2022-07-23T15:29:22;54.90;23.80
40702;DHT22;26387;50.114;8.662;2022-07-23T15:31:49;54.90;24.20
40702;DHT22;26387;50.114;8.662;2022-07-23T15:34:14;53.90;23.60
40702;DHT22;26387;50.114;8.662;2022-07-23T15:36:40;53.20;24.30
40702;DHT22;26387;50.114;8.662;2022-07-23T15:41:32;52.40;24.20
40702;DHT22;26387;50.114;8.662;2022-07-23T15:43:57;52.70;24.50
40702;DHT22;26387;50.114;8.662;2022-07-23T15:46:23;53.10;24.60
40702;DHT22;26387;50.114;8.662;2022-07-23T15:48:50;53.30;24.30
40702;DHT22;26387;50.114;8.662;2022-07-23T15:51:16;53.60;24.40
40702;DHT22;26387;50.114;8.662;2022-07-23T15:53:42;53.90;24.10
40702;DHT22;26387;50.114;8.662;2022-07-23T15:56:08;54.10;24.30
40702;DHT22;26387;50.114;8.662;2022-07-23T15:58:35;54.00;24.00
40702;DHT22;26387;50.114;8.662;2022-07-23T16:01:01;52.90;23.80
40702;DHT22;26387;50.114;8.662;2022-07-23T16:03:33;52.00;24.10
40702;DHT22;26387;50.114;8.662;2022-07-23T16:05:58;51.10;24.30
40702;DHT22;26387;50.114;8.662;2022-07-23T16:08:24;51.30;24.30
40702;DHT22;26387;50.114;8.662;2022-07-23T16:13:16;49.70;23.90
40702;DHT22;26387;50.114;8.662;2022-07-23T16:15:41;49.50;24.40
40702;DHT22;26387;50.114;8.662;2022-07-23T16:18:08;47.50;24.90
40702;DHT22;26387;50.114;8.662;2022-07-23T16:20:35;45.30;25.70
40702;DHT22;26387;50.114;8.662;2022-07-23T16:23:01;43.80;26.40
40702;DHT22;26387;50.114;8.662;2022-07-23T16:25:27;42.40;26.70
40702;DHT22;26387;50.114;8.662;2022-07-23T16:27:52;41.30;27.20
40702;DHT22;26387;50.114;8.662;2022-07-23T16:30:18;40.30;27.90
40702;DHT22;26387;50.114;8.662;2022-07-23T16:32:44;39.50;28.30
40702;DHT22;26387;50.114;8.662;2022-07-23T16:35:10;38.80;28.70
40702;DHT22;26387;50.114;8.662;2022-07-23T16:37:36;38.00;29.00
40702;DHT22;26387;50.114;8.662;2022-07-23T16:40:06;37.40;29.10
40702;DHT22;26387;50.114;8.662;2022-07-23T16:42:32;36.90;29.50
40702;DHT22;26387;50.114;8.662;2022-07-23T16:44:58;36.20;29.70
40702;DHT22;26387;50.114;8.662;2022-07-23T16:47:24;35.80;29.80